createdAt,value
2023-01-17T00:02:06.612Z,18.90
2023-01-17T00:04:53.241Z,18.10
2023-01-17T00:07:41.064Z,17.40
2023-01-17T00:10:16.138Z,19.10
2023-01-17T00:12:52.308Z,19.30
2023-01-17T00:15:21.127Z,18.80
2023-01-17T00:17:49.404Z,20.30
2023-01-17T00:20:36.929Z,19.70
2023-01-17T00:23:27.791Z,19.30
2023-01-17T00:26:05.085Z,18.30
2023-01-17T00:31:00.981Z,17.70
2023-01-17T00:33:28.939Z,19.30
2023-01-17T00:35:57.709Z,18.70
2023-01-17T00:38:26.810Z,19.30
2023-01-17T00:40:55.191Z,19.30
2023-01-17T00:43:42.320Z,20.10
2023-01-17T00:46:29.059Z,20.10
2023-01-17T00:49:15.504Z,19.20
2023-01-17T00:52:01.909Z,20.00
2023-01-17T00:54:48.466Z,19.50
2023-01-17T00:57:35.633Z,19.60
2023-01-17T01:00:22.960Z,20.80
2023-01-17T01:03:09.333Z,19.80
2023-01-17T01:05:56.887Z,19.70
2023-01-17T01:08:44.630Z,19.00
2023-01-17T01:11:32.623Z,19.60
2023-01-17T01:14:19.572Z,20.10
2023-01-17T01:19:53.438Z,18.90
2023-01-17T01:22:40.038Z,18.40
2023-01-17T01:25:26.803Z,20.70
2023-01-17T01:28:21.400Z,19.60
2023-01-17T01:31:07.973Z,20.80
2023-01-17T01:33:35.880Z,20.70
2023-01-17T01:36:04.127Z,22.60
2023-01-17T01:38:32.209Z,22.40
2023-01-17T01:41:00.104Z,22.70
2023-01-17T01:43:46.790Z,23.30
2023-01-17T01:46:25.707Z,23.70
2023-01-17T01:48:58.892Z,22.70
2023-01-17T01:51:33.430Z,23.50
2023-01-17T01:54:03.808Z,22.60
2023-01-17T01:56:32.471Z,22.80
2023-01-17T01:59:02.035Z,23.90
2023-01-17T02:01:31.039Z,22.20
2023-01-17T02:03:58.954Z,22.90
2023-01-17T02:06:29.613Z,21.80
2023-01-17T02:08:59.242Z,23.70
2023-01-17T02:11:27.148Z,21.80
2023-01-17T02:13:55.082Z,20.20
2023-01-17T02:16:37.200Z,21.70
2023-01-17T02:19:20.393Z,19.40
2023-01-17T02:22:06.282Z,18.30
2023-01-17T02:24:43.263Z,18.50
2023-01-17T02:27:30.176Z,19.30
2023-01-17T02:32:31.967Z,16.10
2023-01-17T02:35:13.693Z,16.70
2023-01-17T02:38:00.161Z,16.30
2023-01-17T02:40:35.968Z,15.50
2023-01-17T02:43:07.234Z,16.00
2023-01-17T02:45:34.990Z,16.00
2023-01-17T02:48:03.587Z,15.60
2023-01-17T02:50:55.141Z,16.10
2023-01-17T02:53:23.003Z,15.10
2023-01-17T02:56:01.575Z,15.10
2023-01-17T02:58:48.057Z,13.30
2023-01-17T03:01:18.927Z,12.70
2023-01-17T03:04:05.542Z,14.20
2023-01-17T03:06:33.474Z,12.10
2023-01-17T03:09:02.392Z,11.00
2023-01-17T03:11:30.460Z,11.20
2023-01-17T03:13:58.289Z,11.00
2023-01-17T03:16:28.700Z,10.40
2023-01-17T03:18:56.618Z,9.90
2023-01-17T03:21:25.097Z,10.60
2023-01-17T03:23:52.860Z,9.20
2023-01-17T03:26:20.784Z,8.50
2023-01-17T03:28:48.894Z,8.50
2023-01-17T03:31:17.681Z,8.70
2023-01-17T03:33:45.751Z,8.50
2023-01-17T03:36:13.839Z,8.40
2023-01-17T03:38:41.936Z,8.10
2023-01-17T03:41:10.084Z,7.90
2023-01-17T03:43:38.957Z,7.90
2023-01-17T03:46:08.026Z,7.40
2023-01-17T03:48:35.728Z,7.50
2023-01-17T03:51:03.938Z,7.80
2023-01-17T03:53:31.852Z,8.20
2023-01-17T03:55:59.823Z,6.90
2023-01-17T03:58:27.644Z,6.50
2023-01-17T04:00:55.976Z,6.10
2023-01-17T04:03:24.095Z,7.20
2023-01-17T04:05:52.000Z,6.40
2023-01-17T04:08:20.172Z,6.30
2023-01-17T04:10:48.540Z,6.60
2023-01-17T04:13:17.235Z,6.40
2023-01-17T04:15:46.243Z,6.10
2023-01-17T04:18:14.268Z,6.30
2023-01-17T04:20:43.703Z,6.10
2023-01-17T04:23:11.524Z,5.80
2023-01-17T04:25:39.766Z,5.80
2023-01-17T04:28:07.912Z,5.10
2023-01-17T04:30:35.712Z,5.10
2023-01-17T04:33:04.053Z,4.90
2023-01-17T04:35:33.619Z,4.90
2023-01-17T04:38:01.511Z,4.60
2023-01-17T04:40:29.731Z,4.60
2023-01-17T04:42:58.387Z,4.30
2023-01-17T04:45:27.068Z,4.50
2023-01-17T04:47:55.015Z,4.50
2023-01-17T04:50:23.373Z,3.60
2023-01-17T04:52:51.451Z,3.70
2023-01-17T04:55:19.300Z,4.10
2023-01-17T04:57:48.224Z,4.00
2023-01-17T05:00:16.366Z,3.70
2023-01-17T05:02:44.668Z,3.40
2023-01-17T05:05:13.578Z,4.10
2023-01-17T05:07:41.705Z,3.90
2023-01-17T05:10:10.337Z,3.60
2023-01-17T05:12:38.297Z,3.40
2023-01-17T05:15:06.480Z,3.60
2023-01-17T05:17:34.474Z,3.70
2023-01-17T05:20:02.716Z,3.70
2023-01-17T05:22:30.443Z,3.40
2023-01-17T05:24:58.176Z,3.50
2023-01-17T05:27:25.936Z,3.00
2023-01-17T05:29:53.830Z,3.70
2023-01-17T05:32:22.275Z,3.70
2023-01-17T05:34:51.152Z,3.40
2023-01-17T05:37:19.118Z,3.10
2023-01-17T05:39:47.029Z,3.50
2023-01-17T05:42:14.944Z,3.30
2023-01-17T05:44:42.811Z,3.40
2023-01-17T05:47:10.719Z,3.80
2023-01-17T05:49:39.083Z,3.70
2023-01-17T05:52:06.881Z,3.40
2023-01-17T05:54:34.678Z,3.40
2023-01-17T05:57:02.466Z,3.60
2023-01-17T05:59:37.014Z,3.30
2023-01-17T06:02:05.960Z,3.50
2023-01-17T06:04:33.985Z,3.10
2023-01-17T06:07:01.895Z,3.50
2023-01-17T06:09:29.663Z,3.00
2023-01-17T06:11:58.036Z,2.90
2023-01-17T06:14:25.896Z,3.30
2023-01-17T06:16:54.484Z,3.20
2023-01-17T06:19:22.349Z,3.00
2023-01-17T06:21:50.207Z,3.60
2023-01-17T06:24:18.050Z,3.10
2023-01-17T06:26:45.952Z,3.20
2023-01-17T06:29:13.817Z,3.40
2023-01-17T06:31:41.671Z,3.30
2023-01-17T06:34:09.751Z,2.70
2023-01-17T06:36:37.685Z,3.50
2023-01-17T06:39:06.147Z,3.30
2023-01-17T06:41:34.068Z,3.60
2023-01-17T06:44:02.027Z,3.30
2023-01-17T06:46:29.967Z,3.50
2023-01-17T06:48:57.968Z,3.80
2023-01-17T06:51:25.945Z,3.70
2023-01-17T06:53:53.848Z,3.70
2023-01-17T06:56:22.857Z,3.90
2023-01-17T06:58:51.588Z,3.40
2023-01-17T07:01:19.629Z,3.50
2023-01-17T07:03:47.591Z,3.20
2023-01-17T07:06:15.499Z,3.30
2023-01-17T07:08:43.660Z,3.70
2023-01-17T07:11:11.845Z,3.50
2023-01-17T07:13:40.316Z,3.30
2023-01-17T07:16:09.052Z,3.60
2023-01-17T07:18:36.910Z,3.40
2023-01-17T07:21:06.059Z,3.20
2023-01-17T07:23:34.669Z,3.60
2023-01-17T07:26:02.656Z,3.50
2023-01-17T07:28:30.481Z,3.60
2023-01-17T07:30:58.527Z,3.10
2023-01-17T07:33:27.028Z,3.00
2023-01-17T07:35:55.405Z,3.00
2023-01-17T07:38:23.158Z,2.80
2023-01-17T07:40:51.015Z,2.90
2023-01-17T07:43:19.018Z,2.80
2023-01-17T07:45:51.273Z,2.70
2023-01-17T07:48:19.744Z,2.60
2023-01-17T07:50:55.036Z,2.90
2023-01-17T07:53:24.491Z,2.60
2023-01-17T07:55:52.878Z,2.40
2023-01-17T07:58:21.354Z,2.40
2023-01-17T08:00:49.436Z,2.80
2023-01-17T08:03:17.999Z,2.50
2023-01-17T08:05:56.523Z,2.80
2023-01-17T08:08:24.677Z,2.50
2023-01-17T08:10:53.695Z,2.60
2023-01-17T08:13:22.196Z,2.20
2023-01-17T08:15:50.555Z,2.70
2023-01-17T08:18:18.476Z,2.80
2023-01-17T08:20:48.249Z,2.50
2023-01-17T08:23:16.319Z,2.50
2023-01-17T08:25:44.257Z,2.80
2023-01-17T08:28:12.291Z,2.70
2023-01-17T08:30:40.194Z,2.70
2023-01-17T08:33:08.159Z,2.60
2023-01-17T08:35:36.451Z,2.40
2023-01-17T08:38:07.347Z,2.50
2023-01-17T08:40:35.180Z,2.60
2023-01-17T08:43:04.104Z,2.30
2023-01-17T08:45:32.000Z,2.10
2023-01-17T08:48:00.185Z,2.40
2023-01-17T08:50:28.241Z,2.30
2023-01-17T08:53:01.067Z,2.10
2023-01-17T08:55:29.518Z,2.00
2023-01-17T08:57:57.576Z,2.30
2023-01-17T09:00:25.421Z,2.00
2023-01-17T09:02:54.316Z,2.00
2023-01-17T09:05:22.495Z,1.70
2023-01-17T09:07:50.464Z,2.00
2023-01-17T09:10:18.555Z,1.50
2023-01-17T09:12:46.296Z,1.60
2023-01-17T09:15:17.957Z,1.70
2023-01-17T09:17:46.797Z,1.60
2023-01-17T09:20:14.561Z,1.40
2023-01-17T09:22:42.588Z,1.30
2023-01-17T09:25:10.754Z,1.40
2023-01-17T09:27:38.487Z,1.50
2023-01-17T09:30:06.947Z,1.30
2023-01-17T09:32:34.961Z,1.60
2023-01-17T09:35:04.612Z,1.30
2023-01-17T09:37:32.533Z,1.50
2023-01-17T09:40:00.509Z,1.70
2023-01-17T09:42:38.280Z,1.30
2023-01-17T09:45:13.507Z,1.60
2023-01-17T09:47:43.233Z,1.70
2023-01-17T09:50:20.174Z,1.50
2023-01-17T09:52:48.300Z,1.60
2023-01-17T09:55:17.601Z,1.60
2023-01-17T09:58:00.429Z,1.40
2023-01-17T10:00:28.122Z,1.60
2023-01-17T10:02:59.017Z,1.50
2023-01-17T10:05:32.947Z,1.60
2023-01-17T10:08:10.090Z,1.60
2023-01-17T10:13:05.750Z,1.60
2023-01-17T10:15:42.916Z,2.60
2023-01-17T10:18:29.497Z,3.20
2023-01-17T10:21:06.560Z,10.10
2023-01-17T10:23:43.752Z,5.50
2023-01-17T10:28:46.749Z,5.80
2023-01-17T10:31:24.699Z,3.30
2023-01-17T10:33:54.037Z,2.30
2023-01-17T10:36:24.111Z,2.10
2023-01-17T10:39:00.623Z,1.90
2023-01-17T10:41:29.715Z,1.80
2023-01-17T10:44:01.937Z,1.80
2023-01-17T10:46:33.051Z,2.20
2023-01-17T10:49:02.599Z,3.70
2023-01-17T10:51:43.100Z,1.70
2023-01-17T10:54:20.744Z,1.70
2023-01-17T10:56:48.955Z,1.70
2023-01-17T10:59:30.736Z,1.30
2023-01-17T11:01:59.230Z,1.50
2023-01-17T11:04:33.355Z,1.50
2023-01-17T11:07:13.469Z,1.30
2023-01-17T11:09:45.875Z,1.20
2023-01-17T11:12:22.925Z,1.30
2023-01-17T11:17:19.319Z,1.40
2023-01-17T11:19:51.424Z,1.30
2023-01-17T11:22:19.700Z,1.30
2023-01-17T11:24:50.081Z,1.40
2023-01-17T11:27:29.144Z,1.20
2023-01-17T11:30:10.500Z,1.40
2023-01-17T11:32:38.242Z,1.80
2023-01-17T11:35:21.447Z,1.20
2023-01-17T11:38:01.778Z,2.60
2023-01-17T11:40:37.879Z,2.80
2023-01-17T11:43:11.961Z,9.90
2023-01-17T11:45:40.610Z,3.70
2023-01-17T11:48:08.534Z,12.40
2023-01-17T11:50:40.030Z,15.20
2023-01-17T11:53:17.030Z,8.00
2023-01-17T11:55:56.039Z,4.00
2023-01-17T11:58:25.060Z,3.60
2023-01-17T12:01:02.369Z,4.10
2023-01-17T12:03:45.622Z,1.60
2023-01-17T12:06:18.263Z,1.30
2023-01-17T12:08:52.654Z,1.40
2023-01-17T12:11:29.340Z,2.40
2023-01-17T12:14:06.316Z,2.10
2023-01-17T12:16:34.188Z,1.60
2023-01-17T12:19:02.560Z,1.70
2023-01-17T12:21:46.745Z,1.80
2023-01-17T12:24:24.294Z,1.20
2023-01-17T12:26:58.201Z,1.10
2023-01-17T12:29:35.182Z,5.30
2023-01-17T12:32:06.015Z,5.30
2023-01-17T12:34:38.899Z,3.10
2023-01-17T12:37:29.748Z,3.50
2023-01-17T12:40:05.872Z,3.40
2023-01-17T12:42:40.754Z,3.90
2023-01-17T12:45:20.693Z,2.90
2023-01-17T12:47:54.629Z,5.60
2023-01-17T12:50:33.379Z,5.00
2023-01-17T12:53:20.075Z,5.50
2023-01-17T12:55:48.497Z,4.40
2023-01-17T12:58:26.559Z,3.90
2023-01-17T13:01:07.374Z,2.50
2023-01-17T13:03:47.983Z,3.00
2023-01-17T13:06:22.900Z,3.00
2023-01-17T13:08:54.981Z,3.10
2023-01-17T13:11:29.031Z,2.70
2023-01-17T13:13:59.889Z,2.10
2023-01-17T13:16:42.006Z,2.90
2023-01-17T13:19:35.090Z,3.60
2023-01-17T13:22:06.243Z,3.10
2023-01-17T13:24:55.392Z,2.50
2023-01-17T13:27:26.343Z,2.40
2023-01-17T13:29:54.098Z,1.80
2023-01-17T13:32:51.090Z,1.70
2023-01-17T13:35:33.544Z,1.10
2023-01-17T13:38:01.421Z,1.30
2023-01-17T13:40:33.085Z,2.40
2023-01-17T13:43:02.528Z,2.10
2023-01-17T13:45:34.898Z,2.20
2023-01-17T13:48:12.341Z,1.80
2023-01-17T13:50:40.612Z,1.70
2023-01-17T13:53:27.735Z,1.80
2023-01-17T13:56:01.543Z,1.80
2023-01-17T13:58:30.226Z,2.10
2023-01-17T14:00:58.116Z,2.50
2023-01-17T14:03:52.682Z,2.80
2023-01-17T14:06:45.068Z,2.40
2023-01-17T14:09:47.403Z,1.80
2023-01-17T14:12:18.503Z,1.80
2023-01-17T14:14:50.463Z,1.80
2023-01-17T14:17:23.152Z,2.30
2023-01-17T14:20:03.644Z,2.00
2023-01-17T14:22:35.208Z,2.10
2023-01-17T14:25:12.481Z,1.00
2023-01-17T14:27:46.179Z,2.40
2023-01-17T14:30:18.251Z,2.10
2023-01-17T14:32:58.754Z,2.50
2023-01-17T14:35:30.151Z,2.50
2023-01-17T14:38:01.836Z,2.60
2023-01-17T14:40:30.849Z,2.80
2023-01-17T14:42:58.622Z,2.80
2023-01-17T14:45:28.829Z,2.90
2023-01-17T14:47:58.888Z,5.40
2023-01-17T14:50:29.634Z,4.40
2023-01-17T14:53:19.906Z,3.50
2023-01-17T14:55:48.038Z,3.20
2023-01-17T14:58:19.440Z,3.40
2023-01-17T15:00:51.791Z,2.80
2023-01-17T15:03:20.318Z,2.80
2023-01-17T15:05:49.715Z,2.90
2023-01-17T15:08:19.736Z,2.80
2023-01-17T15:10:51.662Z,2.90
2023-01-17T15:13:43.433Z,2.80
2023-01-17T15:16:25.949Z,3.40
2023-01-17T15:18:54.950Z,3.20
2023-01-17T15:21:24.845Z,2.70
2023-01-17T15:23:54.231Z,2.60
2023-01-17T15:26:23.929Z,2.80
2023-01-17T15:28:52.511Z,2.60
2023-01-17T15:31:24.115Z,2.40
2023-01-17T15:33:55.031Z,1.90
2023-01-17T15:36:32.855Z,2.70
2023-01-17T15:39:02.509Z,4.50
2023-01-17T15:41:33.394Z,5.50
2023-01-17T15:44:01.619Z,6.30
2023-01-17T15:46:31.664Z,5.70
2023-01-17T15:49:25.872Z,5.00
2023-01-17T15:51:55.744Z,5.80
2023-01-17T15:54:44.494Z,10.80
2023-01-17T15:57:18.293Z,19.60
2023-01-17T15:59:46.172Z,12.20
2023-01-17T16:02:31.630Z,4.40
2023-01-17T16:05:03.402Z,4.00
2023-01-17T16:07:36.893Z,5.60
2023-01-17T16:10:14.357Z,6.00
2023-01-17T16:12:43.277Z,6.80
2023-01-17T16:15:13.553Z,7.20
2023-01-17T16:17:44.351Z,7.60
2023-01-17T16:20:20.147Z,7.80
2023-01-17T16:22:49.622Z,6.60
2023-01-17T16:25:19.200Z,6.10
2023-01-17T16:27:47.815Z,7.00
2023-01-17T16:30:16.872Z,8.00
2023-01-17T16:32:48.815Z,5.80
2023-01-17T16:35:19.193Z,5.30
2023-01-17T16:37:51.384Z,4.30
2023-01-17T16:40:20.721Z,9.00
2023-01-17T16:42:49.006Z,7.10
2023-01-17T16:45:18.460Z,6.20
2023-01-17T16:47:47.403Z,8.30
2023-01-17T16:50:17.762Z,10.70
2023-01-17T16:52:45.785Z,13.50
2023-01-17T16:55:14.733Z,25.20
2023-01-17T16:57:43.275Z,22.40
2023-01-17T17:00:12.541Z,20.20
2023-01-17T17:02:41.386Z,16.50
2023-01-17T17:05:10.989Z,15.20
2023-01-17T17:07:46.811Z,14.80
2023-01-17T17:10:17.813Z,13.60
2023-01-17T17:12:46.423Z,13.20
2023-01-17T17:15:14.547Z,10.10
2023-01-17T17:17:43.501Z,8.30
2023-01-17T17:20:13.698Z,7.10
2023-01-17T17:22:45.872Z,8.10
2023-01-17T17:25:13.848Z,8.20
2023-01-17T17:27:42.219Z,7.20
2023-01-17T17:30:11.012Z,6.90
2023-01-17T17:32:45.119Z,8.20
2023-01-17T17:35:13.293Z,8.40
2023-01-17T17:37:41.882Z,9.20
2023-01-17T17:40:10.987Z,8.30
2023-01-17T17:42:39.663Z,6.10
2023-01-17T17:45:09.816Z,6.00
2023-01-17T17:47:40.527Z,7.10
2023-01-17T17:50:12.415Z,6.90
2023-01-17T17:52:44.736Z,7.30
2023-01-17T17:55:13.673Z,8.10
2023-01-17T17:57:42.461Z,7.30
2023-01-17T18:00:11.608Z,7.50
2023-01-17T18:02:40.719Z,6.90
2023-01-17T18:05:10.343Z,7.40
2023-01-17T18:07:39.204Z,6.10
2023-01-17T18:10:08.208Z,11.20
2023-01-17T18:12:36.532Z,13.90
2023-01-17T18:15:05.583Z,12.70
2023-01-17T18:17:33.943Z,13.80
2023-01-17T18:20:03.010Z,13.00
2023-01-17T18:22:33.276Z,18.00
2023-01-17T18:25:01.559Z,21.20
2023-01-17T18:27:29.604Z,21.30
2023-01-17T18:29:58.625Z,22.40
2023-01-17T18:32:26.567Z,20.80
2023-01-17T18:34:54.638Z,20.00
2023-01-17T18:37:23.729Z,19.30
2023-01-17T18:39:51.932Z,17.00
2023-01-17T18:42:23.417Z,16.70
2023-01-17T18:44:51.841Z,14.50
2023-01-17T18:47:21.342Z,13.30
2023-01-17T18:49:54.042Z,11.40
2023-01-17T18:52:22.709Z,8.50
2023-01-17T18:54:51.279Z,8.40
2023-01-17T18:57:20.708Z,6.50
2023-01-17T18:59:49.059Z,7.50
2023-01-17T19:02:22.468Z,8.90
2023-01-17T19:04:54.475Z,11.50
2023-01-17T19:07:25.813Z,10.70
2023-01-17T19:09:56.103Z,9.50
2023-01-17T19:12:24.769Z,10.90
2023-01-17T19:14:53.898Z,10.80
2023-01-17T19:17:22.455Z,10.60
2023-01-17T19:19:51.237Z,11.50
2023-01-17T19:22:19.717Z,14.80
2023-01-17T19:24:48.515Z,16.70
2023-01-17T19:27:19.035Z,18.90
2023-01-17T19:29:47.224Z,18.70
2023-01-17T19:32:15.596Z,17.50
2023-01-17T19:34:43.956Z,17.10
2023-01-17T19:37:11.864Z,15.80
2023-01-17T19:39:40.102Z,15.50
2023-01-17T19:42:15.482Z,15.20
2023-01-17T19:44:44.030Z,15.50
2023-01-17T19:47:12.731Z,15.60
2023-01-17T19:49:42.645Z,15.70
2023-01-17T19:52:11.000Z,15.10
2023-01-17T19:54:38.973Z,18.10
2023-01-17T19:57:07.162Z,19.60
2023-01-17T19:59:35.727Z,19.90
2023-01-17T20:02:04.655Z,15.80
2023-01-17T20:04:33.675Z,18.30
2023-01-17T20:07:03.311Z,19.40
2023-01-17T20:09:31.492Z,17.50
2023-01-17T20:12:00.097Z,16.40
2023-01-17T20:14:28.036Z,15.30
2023-01-17T20:16:56.728Z,15.90
2023-01-17T20:19:24.895Z,16.70
2023-01-17T20:21:54.158Z,19.70
2023-01-17T20:24:22.368Z,19.10
2023-01-17T20:26:51.869Z,20.30
2023-01-17T20:29:19.824Z,20.80
2023-01-17T20:35:16.400Z,18.00
2023-01-17T20:37:47.117Z,18.10
2023-01-17T20:40:18.886Z,18.80
2023-01-17T20:42:47.471Z,19.30
2023-01-17T20:45:17.162Z,18.10
2023-01-17T20:47:45.870Z,19.50
2023-01-17T20:50:13.844Z,18.20
2023-01-17T20:52:42.005Z,20.70
2023-01-17T20:55:10.584Z,18.70
2023-01-17T20:57:39.181Z,18.60
2023-01-17T21:00:08.094Z,17.90
2023-01-17T21:02:36.389Z,18.00
2023-01-17T21:05:05.450Z,17.70
2023-01-17T21:07:33.909Z,16.00
2023-01-17T21:10:01.986Z,14.70
2023-01-17T21:12:31.174Z,16.20
2023-01-17T21:14:59.145Z,16.70
2023-01-17T21:17:29.366Z,19.90
2023-01-17T21:19:57.682Z,20.20
2023-01-17T21:22:25.913Z,18.60
2023-01-17T21:24:54.592Z,17.10
2023-01-17T21:27:22.876Z,16.80
2023-01-17T21:29:53.297Z,16.30
2023-01-17T21:32:21.268Z,16.20
2023-01-17T21:34:52.557Z,16.60
2023-01-17T21:37:22.418Z,15.80
2023-01-17T21:39:54.904Z,15.50
2023-01-17T21:42:23.008Z,16.00
2023-01-17T21:44:51.451Z,14.20
2023-01-17T21:47:19.733Z,14.20
2023-01-17T21:49:49.390Z,13.40
2023-01-17T21:52:18.741Z,14.80
2023-01-17T21:55:05.753Z,15.40
2023-01-17T21:57:52.251Z,14.00
2023-01-17T22:00:20.629Z,12.00
2023-01-17T22:02:49.176Z,12.80
2023-01-17T22:05:18.742Z,14.30
2023-01-17T22:08:06.143Z,13.70
2023-01-17T22:10:44.667Z,14.50
2023-01-17T22:13:19.995Z,15.00
2023-01-17T22:15:57.464Z,16.40
2023-01-17T22:18:26.789Z,15.70
2023-01-17T22:20:55.069Z,16.00
2023-01-17T22:23:26.449Z,15.90
2023-01-17T22:26:02.890Z,16.00
2023-01-17T22:28:34.012Z,16.30
2023-01-17T22:31:11.120Z,15.80
2023-01-17T22:33:40.013Z,15.40
2023-01-17T22:36:08.981Z,16.10
2023-01-17T22:38:39.235Z,14.00
2023-01-17T22:41:13.221Z,14.90
2023-01-17T22:43:42.569Z,14.90
2023-01-17T22:46:12.241Z,15.40
2023-01-17T22:48:40.705Z,14.90
2023-01-17T22:51:09.621Z,19.70
2023-01-17T22:53:56.926Z,29.60
2023-01-17T22:56:26.642Z,28.70
2023-01-17T22:58:55.008Z,24.80
2023-01-17T23:01:27.781Z,28.90
2023-01-17T23:03:57.007Z,26.40
2023-01-17T23:06:27.828Z,27.80
2023-01-17T23:08:57.273Z,28.40
2023-01-17T23:11:39.676Z,26.50
2023-01-17T23:14:08.119Z,34.90
2023-01-17T23:16:58.902Z,29.70
2023-01-17T23:19:28.102Z,15.70
2023-01-17T23:22:16.190Z,12.00
2023-01-17T23:24:46.261Z,11.20
2023-01-17T23:27:35.834Z,12.30
2023-01-17T23:30:14.686Z,11.90
2023-01-17T23:32:47.233Z,11.80
2023-01-17T23:35:17.762Z,11.20
2023-01-17T23:38:04.329Z,11.20
2023-01-17T23:40:33.460Z,11.90
2023-01-17T23:43:20.063Z,12.00
2023-01-17T23:45:47.868Z,11.50
2023-01-17T23:48:15.986Z,11.80
2023-01-17T23:50:45.321Z,11.40
2023-01-17T23:53:21.958Z,10.90
2023-01-17T23:55:51.758Z,12.50
2023-01-17T23:58:20.161Z,12.90
